Observation data for Abernathy on 06/25/2019      Previous  Date  Next       Current Mesonet Observations  Soil Data  Daily Summary Page  Observations in Plain Language
KARS 250500Z 15013KT 23/19 A30 RMK A01 T02270193  RH  085%=      5-min Rain = 0
KARS 250505Z 15012KT 23/19 A30 RMK A01 T02270194  RH  086%=      5-min Rain = 0
KARS 250510Z 15012KT 23/20 A30 RMK A01 T02280196  RH  087%=      5-min Rain = 0
KARS 250515Z 16013KT 23/20 A30 RMK A01 T02290197  RH  087%=      5-min Rain = 0
KARS 250520Z 15013G18KT 23/20 A30 RMK A01 T02290198  RH  088%=      5-min Rain = 0
KARS 250525Z 16014KT 23/20 A30 RMK A01 T02270198  RH  089%=      5-min Rain = 0
KARS 250530Z 15014KT 23/20 A30 RMK A01 T02270199  RH  089%=      5-min Rain = 0
KARS 250535Z 16014G19KT 23/20 A30 RMK A01 T02270200  RH  089%=      5-min Rain = 0
KARS 250540Z 15015KT 23/20 A30 RMK A01 T02280200  RH  089%=      5-min Rain = 0
KARS 250545Z 16017KT 23/20 A30 RMK A01 T02270200  RH  089%=      5-min Rain = 0
KARS 250550Z 16016KT 23/20 A30 RMK A01 T02270199  RH  090%=      5-min Rain = 0
KARS 250555Z 16016KT 23/20 A30 RMK A01 T02270199  RH  089%=      5-min Rain = 0
KARS 250600Z 16016KT 23/20 A30 RMK A01 T02270198  RH  089%=      5-min Rain = 0
KARS 250605Z 16016KT 23/20 A30 RMK A01 T02250196  RH  089%=      5-min Rain = 0
KARS 250610Z 17015G22KT 22/19 A2999 RMK A01 T02240194  RH  088%=      5-min Rain = 0
KARS 250615Z 16014KT 22/19 A2999 RMK A01 T02230193  RH  088%=      5-min Rain = 0
KARS 250620Z 17015KT 22/19 A2999 RMK A01 T02210190  RH  087%=      5-min Rain = 0
KARS 250625Z 18013G19KT 22/19 A2999 RMK A01 T02190185  RH  086%=      5-min Rain = 0
KARS 250630Z 18016G21KT 22/16 A2999 RMK A01 T02180160  RH  073%=      5-min Rain = 0
KARS 250635Z 17014KT 22/15 A2999 RMK A01 T02170152  RH  070%=      5-min Rain = 0
KARS 250640Z 17012KT 21/15 A2999 RMK A01 T02130150  RH  070%=      5-min Rain = 0
KARS 250645Z 17011KT 21/15 A2998 RMK A01 T02100148  RH  071%=      5-min Rain = 0
KARS 250650Z 17010KT 21/15 A2998 RMK A01 T02080148  RH  072%=      5-min Rain = 0
KARS 250655Z 18010KT 21/15 A2998 RMK A01 T02050149  RH  073%=      5-min Rain = 0
KARS 250700Z 18010KT 20/15 A2998 RMK A01 T02030148  RH  074%=      5-min Rain = 0
KARS 250705Z 19009KT 20/15 A2998 RMK A01 T02000149  RH  076%=      5-min Rain = 0
KARS 250710Z 19009KT 20/15 A2998 RMK A01 T01970151  RH  079%=      5-min Rain = 0
KARS 250715Z 19011KT 20/15 A2998 RMK A01 T01970149  RH  077%=      5-min Rain = 0
KARS 250720Z 19010KT 20/15 A2998 RMK A01 T01970146  RH  076%=      5-min Rain = 0
KARS 250725Z 19010KT 20/15 A2998 RMK A01 T01950146  RH  076%=      5-min Rain = 0
KARS 250730Z 18009KT 19/15 A2997 RMK A01 T01930145  RH  077%=      5-min Rain = 0
KARS 250735Z 19009KT 19/15 A2997 RMK A01 T01920145  RH  077%=      5-min Rain = 0
KARS 250740Z 19008KT 19/14 A2997 RMK A01 T01900144  RH  078%=      5-min Rain = 0
KARS 250745Z 19008KT 19/14 A2997 RMK A01 T01880144  RH  079%=      5-min Rain = 0
KARS 250750Z 19007KT 19/15 A2997 RMK A01 T01860145  RH  080%=      5-min Rain = 0
KARS 250755Z 19007KT 19/15 A2998 RMK A01 T01860145  RH  081%=      5-min Rain = 0
KARS 250800Z 19007KT 18/14 A2998 RMK A01 T01840144  RH  081%=      5-min Rain = 0
KARS 250805Z 18007KT 18/14 A2998 RMK A01 T01820143  RH  081%=      5-min Rain = 0
KARS 250810Z 19008KT 18/14 A2998 RMK A01 T01820142  RH  081%=      5-min Rain = 0
KARS 250815Z 20007KT 18/14 A2998 RMK A01 T01800142  RH  082%=      5-min Rain = 0
KARS 250820Z 20006KT 18/14 A2998 RMK A01 T01790142  RH  083%=      5-min Rain = 0
KARS 250825Z 20005KT 18/14 A2998 RMK A01 T01790142  RH  082%=      5-min Rain = 0
KARS 250830Z 20004KT 18/14 A2998 RMK A01 T01770140  RH  082%=      5-min Rain = 0
KARS 250835Z 19003KT 18/14 A2998 RMK A01 T01780139  RH  081%=      5-min Rain = 0
KARS 250840Z 18003KT 18/14 A2998 RMK A01 T01790138  RH  080%=      5-min Rain = 0
KARS 250845Z 19004KT 18/14 A2998 RMK A01 T01790135  RH  079%=      5-min Rain = 0
KARS 250850Z 20005KT 18/13 A2998 RMK A01 T01770133  RH  079%=      5-min Rain = 0
KARS 250855Z 20005KT 17/13 A2998 RMK A01 T01730132  RH  080%=      5-min Rain = 0
KARS 250900Z 19005KT 17/13 A2998 RMK A01 T01710132  RH  081%=      5-min Rain = 0
KARS 250905Z 18004KT 17/13 A2998 RMK A01 T01710132  RH  081%=      5-min Rain = 0
KARS 250910Z 17004KT 17/13 A2998 RMK A01 T01720132  RH  080%=      5-min Rain = 0
KARS 250915Z 19005KT 17/13 A2998 RMK A01 T01740131  RH  079%=      5-min Rain = 0
KARS 250920Z 20005KT 17/13 A2998 RMK A01 T01710129  RH  080%=      5-min Rain = 0
KARS 250925Z 20003KT 17/13 A2998 RMK A01 T01670128  RH  081%=      5-min Rain = 0
KARS 250930Z 18005KT 17/13 A2998 RMK A01 T01650129  RH  082%=      5-min Rain = 0
KARS 250935Z 18005KT 17/13 A2999 RMK A01 T01650130  RH  083%=      5-min Rain = 0
KARS 250940Z 19005KT 16/13 A2999 RMK A01 T01640128  RH  082%=      5-min Rain = 0
KARS 250945Z 19005KT 16/13 A2999 RMK A01 T01600127  RH  084%=      5-min Rain = 0
KARS 250950Z 21005KT 16/13 A2998 RMK A01 T01570126  RH  085%=      5-min Rain = 0
KARS 250955Z 22006KT 16/13 A2999 RMK A01 T01580127  RH  085%=      5-min Rain = 0
KARS 251000Z 21006KT 16/13 A2999 RMK A01 T01590126  RH  084%=      5-min Rain = 0
KARS 251005Z 22006KT 16/13 A2999 RMK A01 T01610127  RH  083%=      5-min Rain = 0
KARS 251010Z 22006KT 17/13 A2999 RMK A01 T01650127  RH  081%=      5-min Rain = 0
KARS 251015Z 22006KT 17/13 A2999 RMK A01 T01660126  RH  080%=      5-min Rain = 0
KARS 251020Z 22006KT 17/13 A30 RMK A01 T01660126  RH  080%=      5-min Rain = 0
KARS 251025Z 22006KT 17/13 A30 RMK A01 T01650126  RH  081%=      5-min Rain = 0
KARS 251030Z 22006KT 16/13 A30 RMK A01 T01630125  RH  081%=      5-min Rain = 0
KARS 251035Z 23006KT 17/13 A30 RMK A01 T01650125  RH  080%=      5-min Rain = 0
KARS 251040Z 23007KT 17/13 A30 RMK A01 T01700125  RH  078%=      5-min Rain = 0
KARS 251045Z 23006KT 17/13 A30 RMK A01 T01710125  RH  077%=      5-min Rain = 0
KARS 251050Z 23004KT 17/12 A30 RMK A01 T01690124  RH  078%=      5-min Rain = 0
KARS 251055Z 21004KT 17/12 A30 RMK A01 T01660124  RH  079%=      5-min Rain = 0
KARS 251100Z 20004KT 16/12 A3001 RMK A01 T01630123  RH  080%=      5-min Rain = 0
KARS 251105Z 18003KT 16/12 A3001 RMK A01 T01630124  RH  081%=      5-min Rain = 0
KARS 251110Z 17003KT 16/13 A3001 RMK A01 T01620126  RH  082%=      5-min Rain = 0
KARS 251115Z 17002KT 16/13 A3001 RMK A01 T01630126  RH  082%=      5-min Rain = 0
KARS 251120Z 18003KT 16/13 A3001 RMK A01 T01640126  RH  082%=      5-min Rain = 0
KARS 251125Z 17004KT 16/13 A3002 RMK A01 T01630127  RH  082%=      5-min Rain = 0
KARS 251130Z 17004KT 16/13 A3002 RMK A01 T01620126  RH  083%=      5-min Rain = 0
KARS 251135Z 18003KT 16/13 A3002 RMK A01 T01610126  RH  083%=      5-min Rain = 0
KARS 251140Z 17003KT 16/13 A3002 RMK A01 T01610126  RH  083%=      5-min Rain = 0
KARS 251145Z 17004KT 16/13 A3002 RMK A01 T01610127  RH  083%=      5-min Rain = 0
KARS 251150Z 19004KT 16/13 A3002 RMK A01 T01590126  RH  084%=      5-min Rain = 0
KARS 251155Z 20004KT 16/12 A3002 RMK A01 T01570124  RH  084%=      5-min Rain = 0
KARS 251200Z 19004KT 16/12 A3003 RMK A01 T01560124  RH  085%=      5-min Rain = 0
KARS 251205Z 19003KT 16/13 A3003 RMK A01 T01580126  RH  084%=      5-min Rain = 0
KARS 251210Z 19003KT 16/13 A3003 RMK A01 T01620129  RH  084%=      5-min Rain = 0
KARS 251215Z 21003KT 16/13 A3003 RMK A01 T01630130  RH  084%=      5-min Rain = 0
KARS 251220Z 21003KT 16/13 A3003 RMK A01 T01630131  RH  085%=      5-min Rain = 0
KARS 251225Z 21003KT 17/13 A3003 RMK A01 T01650133  RH  084%=      5-min Rain = 0
KARS 251230Z 23002KT 17/13 A3003 RMK A01 T01690133  RH  083%=      5-min Rain = 0
KARS 251235Z 26001KT 17/13 A3003 RMK A01 T01720134  RH  081%=      5-min Rain = 0
KARS 251240Z 29000KT 18/14 A3004 RMK A01 T01780135  RH  079%=      5-min Rain = 0
KARS 251245Z 35001KT 18/13 A3004 RMK A01 T01830134  RH  076%=      5-min Rain = 0
KARS 251250Z 31001KT 18/13 A3004 RMK A01 T01830131  RH  075%=      5-min Rain = 0
KARS 251255Z 28002KT 18/13 A3004 RMK A01 T01840131  RH  074%=      5-min Rain = 0
KARS 251300Z 26003KT 19/13 A3004 RMK A01 T01850133  RH  075%=      5-min Rain = 0
KARS 251305Z 26003KT 19/13 A3004 RMK A01 T01870134  RH  074%=      5-min Rain = 0
KARS 251310Z 25003KT 19/14 A3004 RMK A01 T01890135  RH  074%=      5-min Rain = 0
KARS 251315Z 26005KT 19/13 A3005 RMK A01 T01930133  RH  071%=      5-min Rain = 0
KARS 251320Z 26006KT 20/13 A3005 RMK A01 T01970131  RH  068%=      5-min Rain = 0
KARS 251325Z 26008KT 20/13 A3004 RMK A01 T02000131  RH  067%=      5-min Rain = 0
KARS 251330Z 25009KT 20/13 A3004 RMK A01 T02020131  RH  066%=      5-min Rain = 0
KARS 251335Z 24008KT 21/13 A3005 RMK A01 T02050131  RH  065%=      5-min Rain = 0
KARS 251340Z 24008KT 21/13 A3005 RMK A01 T02090131  RH  064%=      5-min Rain = 0
KARS 251345Z 25009KT 21/13 A3004 RMK A01 T02110130  RH  062%=      5-min Rain = 0
KARS 251350Z 24010KT 21/13 A3004 RMK A01 T02120130  RH  062%=      5-min Rain = 0
KARS 251355Z 24011KT 21/13 A3004 RMK A01 T02140131  RH  061%=      5-min Rain = 0
KARS 251400Z 24012KT 22/13 A3004 RMK A01 T02160132  RH  061%=      5-min Rain = 0
KARS 251405Z 24012KT 22/14 A3004 RMK A01 T02200135  RH  061%=      5-min Rain = 0
KARS 251410Z 23012KT 22/14 A3004 RMK A01 T02240137  RH  060%=      5-min Rain = 0
KARS 251415Z 23013KT 23/14 A3004 RMK A01 T02260138  RH  060%=      5-min Rain = 0
KARS 251420Z 23012KT 23/14 A3004 RMK A01 T02300141  RH  059%=      5-min Rain = 0
KARS 251425Z 23016G23KT 23/14 A3004 RMK A01 T02340143  RH  059%=      5-min Rain = 0
KARS 251430Z 23014KT 24/14 A3004 RMK A01 T02350143  RH  059%=      5-min Rain = 0
KARS 251435Z 23015KT 24/15 A3005 RMK A01 T02390145  RH  058%=      5-min Rain = 0
KARS 251440Z 24016KT 24/15 A3004 RMK A01 T02410145  RH  057%=      5-min Rain = 0
KARS 251445Z 23017KT 24/15 A3004 RMK A01 T02430145  RH  057%=      5-min Rain = 0
KARS 251450Z 23017KT 24/15 A3004 RMK A01 T02440146  RH  057%=      5-min Rain = 0
KARS 251455Z 23017G22KT 25/15 A3004 RMK A01 T02480149  RH  057%=      5-min Rain = 0
KARS 251500Z 23018KT 25/15 A3004 RMK A01 T02500149  RH  056%=      5-min Rain = 0
KARS 251505Z 24017KT 25/15 A3004 RMK A01 T02510150  RH  056%=      5-min Rain = 0
KARS 251510Z 24016KT 26/15 A3004 RMK A01 T02560151  RH  055%=      5-min Rain = 0
KARS 251515Z 23016G21KT 26/15 A3004 RMK A01 T02570151  RH  054%=      5-min Rain = 0
KARS 251520Z 23015KT 26/15 A3004 RMK A01 T02590152  RH  054%=      5-min Rain = 0
KARS 251525Z 22014KT 26/15 A3004 RMK A01 T02630154  RH  053%=      5-min Rain = 0
KARS 251530Z 22015G20KT 26/15 A3004 RMK A01 T02630152  RH  053%=      5-min Rain = 0
KARS 251535Z 23016KT 27/15 A3004 RMK A01 T02650152  RH  052%=      5-min Rain = 0
KARS 251540Z 22015KT 27/15 A3004 RMK A01 T02690153  RH  052%=      5-min Rain = 0
KARS 251545Z 23015KT 27/15 A3004 RMK A01 T02680152  RH  051%=      5-min Rain = 0
KARS 251550Z 23014G19KT 27/15 A3004 RMK A01 T02710152  RH  050%=      5-min Rain = 0
KARS 251555Z 24014KT 28/15 A3004 RMK A01 T02750154  RH  050%=      5-min Rain = 0
KARS 251600Z 23012G18KT 28/15 A3004 RMK A01 T02750154  RH  050%=      5-min Rain = 0
KARS 251605Z 23011G16KT 28/16 A3004 RMK A01 T02790155  RH  049%=      5-min Rain = 0
KARS 251610Z 22012KT 28/15 A3004 RMK A01 T02790154  RH  049%=      5-min Rain = 0
KARS 251615Z 22013G18KT 28/15 A3004 RMK A01 T02810152  RH  048%=      5-min Rain = 0
KARS 251620Z 21012G17KT 28/15 A3004 RMK A01 T02810153  RH  048%=      5-min Rain = 0
KARS 251625Z 21012KT 28/15 A3005 RMK A01 T02820152  RH  047%=      5-min Rain = 0
KARS 251630Z 20011KT 28/16 A3005 RMK A01 T02840155  RH  048%=      5-min Rain = 0
KARS 251635Z 20009KT 29/16 A3005 RMK A01 T02860155  RH  047%=      5-min Rain = 0
KARS 251640Z 21010KT 29/16 A3004 RMK A01 T02870155  RH  047%=      5-min Rain = 0
KARS 251645Z 20012KT 29/16 A3004 RMK A01 T02900158  RH  047%=      5-min Rain = 0
KARS 251650Z 20010KT 29/16 A3004 RMK A01 T02890156  RH  047%=      5-min Rain = 0
KARS 251655Z 19008G13KT 29/16 A3004 RMK A01 T02890162  RH  048%=      5-min Rain = 0
KARS 251700Z 19009KT 29/16 A3004 RMK A01 T02920162  RH  048%=      5-min Rain = 0
KARS 251705Z 19009G14KT 29/16 A3004 RMK A01 T02910160  RH  047%=      5-min Rain = 0
KARS 251710Z 20009G14KT 29/16 A3004 RMK A01 T02930161  RH  047%=      5-min Rain = 0
KARS 251715Z 20010KT 30/16 A3004 RMK A01 T02950157  RH  045%=      5-min Rain = 0
KARS 251720Z 19008KT 30/16 A3004 RMK A01 T02970159  RH  045%=      5-min Rain = 0
KARS 251725Z 20010KT 30/16 A3004 RMK A01 T02970156  RH  044%=      5-min Rain = 0
KARS 251730Z 20009G16KT 30/16 A3004 RMK A01 T03000157  RH  044%=      5-min Rain = 0
KARS 251735Z 20009KT 30/16 A3004 RMK A01 T03020157  RH  044%=      5-min Rain = 0
KARS 251740Z 18010G15KT 31/16 A3004 RMK A01 T03050160  RH  044%=      5-min Rain = 0
KARS 251745Z 19009G14KT 31/16 A3003 RMK A01 T03070156  RH  042%=      5-min Rain = 0
KARS 251750Z 21009KT 31/15 A3003 RMK A01 T03070154  RH  041%=      5-min Rain = 0
KARS 251755Z 19008KT 31/15 A3003 RMK A01 T03070154  RH  042%=      5-min Rain = 0
KARS 251800Z 21009KT 31/15 A3003 RMK A01 T03090151  RH  040%=      5-min Rain = 0
KARS 251805Z 19008KT 31/16 A3003 RMK A01 T03100156  RH  041%=      5-min Rain = 0
KARS 251810Z 18009KT 31/16 A3003 RMK A01 T03130156  RH  041%=      5-min Rain = 0
KARS 251815Z 17008G14KT 31/15 A3003 RMK A01 T03130153  RH  040%=      5-min Rain = 0
KARS 251820Z 18009G14KT 31/15 A3003 RMK A01 T03140149  RH  038%=      5-min Rain = 0
KARS 251825Z 18007KT 32/15 A3002 RMK A01 T03160148  RH  038%=      5-min Rain = 0
KARS 251830Z 18009G15KT 32/14 A3002 RMK A01 T03180141  RH  036%=      5-min Rain = 0
KARS 251835Z 18009KT 32/14 A3002 RMK A01 T03200144  RH  036%=      5-min Rain = 0
KARS 251840Z 18009G14KT 32/14 A3002 RMK A01 T03200141  RH  035%=      5-min Rain = 0
KARS 251845Z 18012KT 33/14 A3002 RMK A01 T03260137  RH  033%=      5-min Rain = 0
KARS 251850Z 17011KT 33/13 A3002 RMK A01 T03250131  RH  032%=      5-min Rain = 0
KARS 251855Z 17011KT 32/13 A3002 RMK A01 T03240131  RH  032%=      5-min Rain = 0
KARS 251900Z 16010G17KT 33/14 A3002 RMK A01 T03260139  RH  034%=      5-min Rain = 0
KARS 251905Z 17012G17KT 33/12 A3002 RMK A01 T03260124  RH  030%=      5-min Rain = 0
KARS 251910Z 17011KT 33/13 A3002 RMK A01 T03250132  RH  032%=      5-min Rain = 0
KARS 251915Z 18010KT 33/13 A3002 RMK A01 T03260129  RH  031%=      5-min Rain = 0
KARS 251920Z 16012KT 33/13 A3002 RMK A01 T03300130  RH  031%=      5-min Rain = 0
KARS 251925Z 18013G18KT 33/12 A3002 RMK A01 T03310122  RH  029%=      5-min Rain = 0
KARS 251930Z 17012G17KT 33/13 A3002 RMK A01 T03330126  RH  030%=      5-min Rain = 0
KARS 251935Z 17014G21KT 34/12 A3001 RMK A01 T03350123  RH  029%=      5-min Rain = 0
KARS 251940Z 17012G17KT 33/12 A3001 RMK A01 T03330123  RH  029%=      5-min Rain = 0
KARS 251945Z 16012G17KT 33/13 A3001 RMK A01 T03310128  RH  030%=      5-min Rain = 0
KARS 251950Z 17014G19KT 33/13 A3001 RMK A01 T03330128  RH  030%=      5-min Rain = 0
KARS 251955Z 17014G21KT 33/14 A3001 RMK A01 T03320138  RH  032%=      5-min Rain = 0
KARS 252000Z 17015KT 33/14 A3001 RMK A01 T03320142  RH  033%=      5-min Rain = 0
KARS 252005Z 17015KT 33/14 A3001 RMK A01 T03300143  RH  034%=      5-min Rain = 0
KARS 252010Z 17014G19KT 33/14 A30 RMK A01 T03300135  RH  032%=      5-min Rain = 0
KARS 252015Z 17015G22KT 34/13 A30 RMK A01 T03350125  RH  029%=      5-min Rain = 0
KARS 252020Z 16016G21KT 33/12 A30 RMK A01 T03340120  RH  028%=      5-min Rain = 0
KARS 252025Z 17016G23KT 33/12 A30 RMK A01 T03340120  RH  028%=      5-min Rain = 0
KARS 252030Z 17015KT 34/12 A30 RMK A01 T03360120  RH  028%=      5-min Rain = 0
KARS 252035Z 16015G22KT 34/12 A30 RMK A01 T03360117  RH  027%=      5-min Rain = 0
KARS 252040Z 17016G22KT 34/12 A30 RMK A01 T03380117  RH  027%=      5-min Rain = 0
KARS 252045Z 17016G22KT 34/12 A30 RMK A01 T03370120  RH  028%=      5-min Rain = 0
KARS 252050Z 18016G21KT 33/12 A2999 RMK A01 T03340122  RH  029%=      5-min Rain = 0
KARS 252055Z 16015G20KT 34/12 A2999 RMK A01 T03370118  RH  027%=      5-min Rain = 0
KARS 252100Z 16014G21KT 34/13 A2999 RMK A01 T03380132  RH  030%=      5-min Rain = 0
KARS 252105Z 15015G22KT 34/14 A2999 RMK A01 T03390137  RH  031%=      5-min Rain = 0
KARS 252110Z 16016KT 34/14 A2999 RMK A01 T03420140  RH  031%=      5-min Rain = 0
KARS 252115Z 16015G21KT 34/14 A2999 RMK A01 T03360139  RH  032%=      5-min Rain = 0
KARS 252120Z 15017G24KT 34/14 A2999 RMK A01 T03360137  RH  031%=      5-min Rain = 0
KARS 252125Z 14018G25KT 34/14 A2998 RMK A01 T03410143  RH  032%=      5-min Rain = 0
KARS 252130Z 16017G27KT 34/14 A2998 RMK A01 T03420143  RH  032%=      5-min Rain = 0
KARS 252135Z 16015G21KT 34/14 A2998 RMK A01 T03370136  RH  031%=      5-min Rain = 0
KARS 252140Z 16016G23KT 34/14 A2998 RMK A01 T03380143  RH  032%=      5-min Rain = 0
KARS 252145Z 17018G24KT 34/14 A2998 RMK A01 T03360142  RH  032%=      5-min Rain = 0
KARS 252150Z 16018KT 33/14 A2997 RMK A01 T03340141  RH  033%=      5-min Rain = 0
KARS 252155Z 16019KT 34/15 A2997 RMK A01 T03350148  RH  034%=      5-min Rain = 0
KARS 252200Z 16019G24KT 34/15 A2997 RMK A01 T03350147  RH  034%=      5-min Rain = 0
KARS 252205Z 16018G23KT 34/15 A2997 RMK A01 T03350150  RH  034%=      5-min Rain = 0
KARS 252210Z 17018G23KT 33/15 A2997 RMK A01 T03320145  RH  034%=      5-min Rain = 0
KARS 252215Z 16017G22KT 33/14 A2996 RMK A01 T03320142  RH  033%=      5-min Rain = 0
KARS 252220Z 17019KT 33/14 A2996 RMK A01 T03340143  RH  033%=      5-min Rain = 0
KARS 252225Z 17016G22KT 33/14 A2996 RMK A01 T03320137  RH  032%=      5-min Rain = 0
KARS 252230Z 16019G24KT 33/13 A2996 RMK A01 T03330133  RH  031%=      5-min Rain = 0
KARS 252235Z 17018KT 33/14 A2996 RMK A01 T03300136  RH  032%=      5-min Rain = 0
KARS 252240Z 17017KT 33/14 A2996 RMK A01 T03320136  RH  032%=      5-min Rain = 0
KARS 252245Z 17018G24KT 33/14 A2996 RMK A01 T03300135  RH  032%=      5-min Rain = 0
KARS 252250Z 17018KT 33/13 A2996 RMK A01 T03290130  RH  031%=      5-min Rain = 0
KARS 252255Z 17019G24KT 33/13 A2996 RMK A01 T03300130  RH  031%=      5-min Rain = 0
KARS 252300Z 16017G22KT 33/13 A2996 RMK A01 T03310125  RH  030%=      5-min Rain = 0
KARS 252305Z 17019G24KT 33/12 A2996 RMK A01 T03290123  RH  030%=      5-min Rain = 0
KARS 252310Z 17020G25KT 33/13 A2996 RMK A01 T03300125  RH  030%=      5-min Rain = 0
KARS 252315Z 17020G27KT 33/12 A2995 RMK A01 T03290123  RH  030%=      5-min Rain = 0
KARS 252320Z 17021G26KT 33/12 A2995 RMK A01 T03260122  RH  030%=      5-min Rain = 0
KARS 252325Z 17020G25KT 33/13 A2995 RMK A01 T03260125  RH  031%=      5-min Rain = 0
KARS 252330Z 17019G24KT 33/13 A2994 RMK A01 T03270127  RH  031%=      5-min Rain = 0
KARS 252335Z 17020G26KT 33/13 A2994 RMK A01 T03260129  RH  031%=      5-min Rain = 0
KARS 252340Z 17022KT 32/13 A2994 RMK A01 T03210131  RH  033%=      5-min Rain = 0
KARS 252345Z 17021KT 32/13 A2994 RMK A01 T03230129  RH  032%=      5-min Rain = 0
KARS 252350Z 16021G27KT 32/15 A2994 RMK A01 T03210146  RH  036%=      5-min Rain = 0
KARS 252355Z 15023G28KT 32/15 A2994 RMK A01 T03190146  RH  037%=      5-min Rain = 0
KARS 260000Z 16023G29KT 32/15 A2994 RMK A01 T03180146  RH  037%=      5-min Rain = 0
KARS 260005Z 16022KT 32/14 A2995 RMK A01 T03170141  RH  036%=      5-min Rain = 0
KARS 260010Z 15021G27KT 32/14 A2995 RMK A01 T03160142  RH  036%=      5-min Rain = 0
KARS 260015Z 15020G25KT 32/14 A2995 RMK A01 T03160142  RH  036%=      5-min Rain = 0
KARS 260020Z 15022KT 32/15 A2996 RMK A01 T03150145  RH  037%=      5-min Rain = 0
KARS 260025Z 15021G26KT 31/15 A2996 RMK A01 T03120147  RH  038%=      5-min Rain = 0
KARS 260030Z 15024KT 31/15 A2996 RMK A01 T03080146  RH  039%=      5-min Rain = 0
KARS 260035Z 14022KT 31/15 A2996 RMK A01 T03070146  RH  039%=      5-min Rain = 0
KARS 260040Z 14021G26KT 31/15 A2996 RMK A01 T03050147  RH  040%=      5-min Rain = 0
KARS 260045Z 14022KT 30/15 A2996 RMK A01 T03040148  RH  040%=      5-min Rain = 0
KARS 260050Z 14023G31KT 30/15 A2997 RMK A01 T03020148  RH  041%=      5-min Rain = 0
KARS 260055Z 14022G27KT 30/15 A2997 RMK A01 T03010148  RH  041%=      5-min Rain = 0
KARS 260100Z 14022G29KT 30/15 A2997 RMK A01 T02990148  RH  042%=      5-min Rain = 0
KARS 260105Z 14021KT 30/15 A2998 RMK A01 T02980147  RH  042%=      5-min Rain = 0
KARS 260110Z 14021G26KT 30/15 A2998 RMK A01 T02970147  RH  042%=      5-min Rain = 0
KARS 260115Z 14021G26KT 30/15 A2998 RMK A01 T02960147  RH  042%=      5-min Rain = 0
KARS 260120Z 14020G26KT 29/15 A2998 RMK A01 T02940147  RH  043%=      5-min Rain = 0
KARS 260125Z 14020G26KT 29/15 A2998 RMK A01 T02920148  RH  043%=      5-min Rain = 0
KARS 260130Z 14020KT 29/15 A2998 RMK A01 T02910146  RH  043%=      5-min Rain = 0
KARS 260135Z 15018G24KT 29/15 A2998 RMK A01 T02890146  RH  044%=      5-min Rain = 0
KARS 260140Z 15019G24KT 29/15 A2999 RMK A01 T02880145  RH  044%=      5-min Rain = 0
KARS 260145Z 15017KT 29/15 A2999 RMK A01 T02860145  RH  044%=      5-min Rain = 0
KARS 260150Z 15017G22KT 28/15 A2999 RMK A01 T02840145  RH  045%=      5-min Rain = 0
KARS 260155Z 15016KT 28/14 A30 RMK A01 T02820144  RH  045%=      5-min Rain = 0
KARS 260200Z 13014KT 28/14 A3001 RMK A01 T02800144  RH  045%=      5-min Rain = 0
KARS 260205Z 10014KT 28/14 A3002 RMK A01 T02800143  RH  045%=      5-min Rain = 0
KARS 260210Z 07015G27KT 28/15 A3004 RMK A01 T02780147  RH  047%=      5-min Rain = 0
KARS 260215Z 07021G29KT 27/14 A3004 RMK A01 T02650139  RH  048%=      5-min Rain = 0
KARS 260220Z 07020KT 26/14 A3005 RMK A01 T02630140  RH  049%=      5-min Rain = 0
KARS 260225Z 07020KT 27/14 A3005 RMK A01 T02650143  RH  049%=      5-min Rain = 0
KARS 260230Z 05020G31KT 26/14 A3007 RMK A01 T02640140  RH  048%=      5-min Rain = 0
KARS 260235Z 04026G31KT 23/12 A3008 RMK A01 T02340121  RH  051%=      5-min Rain = 0
KARS 260240Z 06023G29KT 23/12 A3007 RMK A01 T02290121  RH  052%=      5-min Rain = 0
KARS 260245Z 07023G28KT 23/12 A3007 RMK A01 T02280121  RH  053%=      5-min Rain = 0
KARS 260250Z 06023KT 23/12 A3008 RMK A01 T02280123  RH  054%=      5-min Rain = 0
KARS 260255Z 06023G29KT 23/13 A3008 RMK A01 T02250129  RH  057%=      5-min Rain = 0
KARS 260300Z 07022G29KT 22/13 A3008 RMK A01 T02210131  RH  059%=      5-min Rain = 0
KARS 260305Z 07019G25KT 22/13 A3008 RMK A01 T02190133  RH  061%=      5-min Rain = 0
KARS 260310Z 07017KT 22/14 A3009 RMK A01 T02150140  RH  065%=      5-min Rain = 0
KARS 260315Z 06016KT 21/14 A3011 RMK A01 T02120144  RH  068%=      5-min Rain = 0
KARS 260320Z 07017KT 21/14 A3011 RMK A01 T02140142  RH  066%=      5-min Rain = 0
KARS 260325Z 08018KT 22/14 A3011 RMK A01 T02190139  RH  063%=      5-min Rain = 0
KARS 260330Z 09017G23KT 22/14 A3011 RMK A01 T02210140  RH  063%=      5-min Rain = 0
KARS 260335Z 09018KT 22/14 A3011 RMK A01 T02220138  RH  062%=      5-min Rain = 0
KARS 260340Z 08017G22KT 22/14 A3011 RMK A01 T02220137  RH  061%=      5-min Rain = 0
KARS 260345Z 08017G22KT 22/13 A3011 RMK A01 T02230134  RH  059%=      5-min Rain = 0
KARS 260350Z 08018G23KT 22/13 A3011 RMK A01 T02230131  RH  058%=      5-min Rain = 0
KARS 260355Z 09018G24KT 22/13 A3011 RMK A01 T02230130  RH  058%=      5-min Rain = 0
KARS 260400Z 09018KT 22/13 A3011 RMK A01 T02220130  RH  058%=      5-min Rain = 0
KARS 260405Z 09019KT 22/13 A3011 RMK A01 T02230129  RH  057%=      5-min Rain = 0
KARS 260410Z 10018KT 22/13 A3011 RMK A01 T02240128  RH  057%=      5-min Rain = 0
KARS 260415Z 10017KT 22/13 A3012 RMK A01 T02230126  RH  056%=      5-min Rain = 0
KARS 260420Z 10017G22KT 22/13 A3012 RMK A01 T02230126  RH  056%=      5-min Rain = 0
KARS 260425Z 12017KT 22/13 A3012 RMK A01 T02220127  RH  057%=      5-min Rain = 0
KARS 260430Z 12018G25KT 22/13 A3012 RMK A01 T02230126  RH  056%=      5-min Rain = 0
KARS 260435Z 12020G26KT 23/12 A3012 RMK A01 T02250124  RH  055%=      5-min Rain = 0
KARS 260440Z 13020KT 23/12 A3012 RMK A01 T02260122  RH  054%=      5-min Rain = 0
KARS 260445Z 14018KT 23/12 A3012 RMK A01 T02260124  RH  054%=      5-min Rain = 0
KARS 260450Z 14018KT 23/13 A3011 RMK A01 T02270126  RH  055%=      5-min Rain = 0
KARS 260455Z 14016KT 23/13 A3012 RMK A01 T02290127  RH  055%=      5-min Rain = 0

Page generated in 0.0091 seconds.